sensor_id;sensor_type;location;lat;lon;timestamp;temperature;humidity
28175;SHT30;59417;44.788;10.334;2023-09-19T00:02:03;23.71;70.84
28175;SHT30;59417;44.788;10.334;2023-09-19T00:04:33;23.61;71.12
28175;SHT30;59417;44.788;10.334;2023-09-19T00:06:59;23.57;71.22
28175;SHT30;59417;44.788;10.334;2023-09-19T00:09:25;23.41;71.73
28175;SHT30;59417;44.788;10.334;2023-09-19T00:11:53;23.24;72.29
28175;SHT30;59417;44.788;10.334;2023-09-19T00:14:19;23.36;72.03
28175;SHT30;59417;44.788;10.334;2023-09-19T00:16:45;23.36;72.15
28175;SHT30;59417;44.788;10.334;2023-09-19T00:19:12;23.22;72.27
28175;SHT30;59417;44.788;10.334;2023-09-19T00:21:38;23.30;72.14
28175;SHT30;59417;44.788;10.334;2023-09-19T00:24:06;23.19;72.55
28175;SHT30;59417;44.788;10.334;2023-09-19T00:26:32;23.19;72.41
28175;SHT30;59417;44.788;10.334;2023-09-19T00:29:00;23.37;72.04
28175;SHT30;59417;44.788;10.334;2023-09-19T00:31:31;23.40;72.00
28175;SHT30;59417;44.788;10.334;2023-09-19T00:33:57;23.13;72.75
28175;SHT30;59417;44.788;10.334;2023-09-19T00:36:27;23.10;72.92
28175;SHT30;59417;44.788;10.334;2023-09-19T00:38:54;23.07;72.99
28175;SHT30;59417;44.788;10.334;2023-09-19T00:41:20;23.10;72.76
28175;SHT30;59417;44.788;10.334;2023-09-19T00:43:46;23.19;72.52
28175;SHT30;59417;44.788;10.334;2023-09-19T00:46:16;23.20;72.46
28175;SHT30;59417;44.788;10.334;2023-09-19T00:48:42;23.34;71.76
28175;SHT30;59417;44.788;10.334;2023-09-19T00:51:09;23.29;72.00
28175;SHT30;59417;44.788;10.334;2023-09-19T00:53:35;22.98;72.95
28175;SHT30;59417;44.788;10.334;2023-09-19T00:56:02;23.00;73.09
28175;SHT30;59417;44.788;10.334;2023-09-19T00:58:29;23.06;72.83
28175;SHT30;59417;44.788;10.334;2023-09-19T01:01:00;23.26;72.19
28175;SHT30;59417;44.788;10.334;2023-09-19T01:03:27;23.13;72.65
28175;SHT30;59417;44.788;10.334;2023-09-19T01:05:53;22.86;73.59
28175;SHT30;59417;44.788;10.334;2023-09-19T01:08:19;22.83;73.56
28175;SHT30;59417;44.788;10.334;2023-09-19T01:11:06;22.82;73.48
28175;SHT30;59417;44.788;10.334;2023-09-19T01:16:19;22.86;73.28
28175;SHT30;59417;44.788;10.334;2023-09-19T01:29:47;22.95;72.90
28175;SHT30;59417;44.788;10.334;2023-09-19T01:32:19;22.76;73.32
28175;SHT30;59417;44.788;10.334;2023-09-19T01:34:56;22.79;73.63
28175;SHT30;59417;44.788;10.334;2023-09-19T01:37:29;22.71;73.66
28175;SHT30;59417;44.788;10.334;2023-09-19T01:40:07;22.83;73.29
28175;SHT30;59417;44.788;10.334;2023-09-19T01:45:33;22.75;73.46
28175;SHT30;59417;44.788;10.334;2023-09-19T01:48:16;22.64;73.81
28175;SHT30;59417;44.788;10.334;2023-09-19T01:50:55;22.83;73.19
28175;SHT30;59417;44.788;10.334;2023-09-19T01:53:27;22.85;72.95
28175;SHT30;59417;44.788;10.334;2023-09-19T01:55:57;22.86;72.96
28175;SHT30;59417;44.788;10.334;2023-09-19T02:00:57;22.65;73.49
28175;SHT30;59417;44.788;10.334;2023-09-19T02:03:24;22.75;73.38
28175;SHT30;59417;44.788;10.334;2023-09-19T02:05:51;22.72;73.29
28175;SHT30;59417;44.788;10.334;2023-09-19T02:08:20;22.62;73.55
28175;SHT30;59417;44.788;10.334;2023-09-19T02:10:49;22.58;73.88
28175;SHT30;59417;44.788;10.334;2023-09-19T02:13:18;22.59;73.77
28175;SHT30;59417;44.788;10.334;2023-09-19T02:15:47;22.58;73.90
28175;SHT30;59417;44.788;10.334;2023-09-19T02:18:13;22.41;74.42
28175;SHT30;59417;44.788;10.334;2023-09-19T02:20:41;22.65;73.66
28175;SHT30;59417;44.788;10.334;2023-09-19T02:23:08;22.64;73.62
28175;SHT30;59417;44.788;10.334;2023-09-19T02:25:34;22.61;73.47
28175;SHT30;59417;44.788;10.334;2023-09-19T02:28:01;22.59;73.75
28175;SHT30;59417;44.788;10.334;2023-09-19T02:30:29;22.54;73.71
28175;SHT30;59417;44.788;10.334;2023-09-19T02:32:55;22.48;73.85
28175;SHT30;59417;44.788;10.334;2023-09-19T02:35:21;22.44;74.00
28175;SHT30;59417;44.788;10.334;2023-09-19T02:37:47;22.49;73.89
28175;SHT30;59417;44.788;10.334;2023-09-19T02:40:13;22.41;74.10
28175;SHT30;59417;44.788;10.334;2023-09-19T02:42:49;22.51;73.95
28175;SHT30;59417;44.788;10.334;2023-09-19T02:45:19;22.71;73.45
28175;SHT30;59417;44.788;10.334;2023-09-19T02:47:46;22.57;73.56
28175;SHT30;59417;44.788;10.334;2023-09-19T02:50:12;22.22;74.60
28175;SHT30;59417;44.788;10.334;2023-09-19T02:52:41;22.29;74.67
28175;SHT30;59417;44.788;10.334;2023-09-19T02:55:09;22.07;75.18
28175;SHT30;59417;44.788;10.334;2023-09-19T02:57:36;22.01;75.63
28175;SHT30;59417;44.788;10.334;2023-09-19T03:00:09;22.07;75.28
28175;SHT30;59417;44.788;10.334;2023-09-19T03:02:38;22.35;74.27
28175;SHT30;59417;44.788;10.334;2023-09-19T03:05:07;22.24;74.74
28175;SHT30;59417;44.788;10.334;2023-09-19T03:07:33;22.01;75.31
28175;SHT30;59417;44.788;10.334;2023-09-19T03:09:59;22.22;74.84
28175;SHT30;59417;44.788;10.334;2023-09-19T03:12:28;22.14;75.00
28175;SHT30;59417;44.788;10.334;2023-09-19T03:14:54;21.93;75.64
28175;SHT30;59417;44.788;10.334;2023-09-19T03:17:21;22.13;75.18
28175;SHT30;59417;44.788;10.334;2023-09-19T03:19:47;21.89;76.05
28175;SHT30;59417;44.788;10.334;2023-09-19T03:22:14;21.78;76.39
28175;SHT30;59417;44.788;10.334;2023-09-19T03:24:40;21.80;76.34
28175;SHT30;59417;44.788;10.334;2023-09-19T03:27:12;21.86;76.32
28175;SHT30;59417;44.788;10.334;2023-09-19T03:29:42;22.22;75.06
28175;SHT30;59417;44.788;10.334;2023-09-19T03:32:08;22.13;75.19
28175;SHT30;59417;44.788;10.334;2023-09-19T03:34:38;21.81;76.34
28175;SHT30;59417;44.788;10.334;2023-09-19T03:37:07;21.71;76.69
28175;SHT30;59417;44.788;10.334;2023-09-19T03:39:34;21.90;76.26
28175;SHT30;59417;44.788;10.334;2023-09-19T03:42:01;21.90;76.08
28175;SHT30;59417;44.788;10.334;2023-09-19T03:44:28;21.94;75.92
28175;SHT30;59417;44.788;10.334;2023-09-19T03:46:54;21.96;75.81
28175;SHT30;59417;44.788;10.334;2023-09-19T03:49:22;22.01;75.80
28175;SHT30;59417;44.788;10.334;2023-09-19T03:51:48;22.14;75.25
28175;SHT30;59417;44.788;10.334;2023-09-19T03:54:14;21.86;76.09
28175;SHT30;59417;44.788;10.334;2023-09-19T03:56:39;21.80;76.53
28175;SHT30;59417;44.788;10.334;2023-09-19T03:59:05;21.78;76.67
28175;SHT30;59417;44.788;10.334;2023-09-19T04:01:31;21.78;76.57
28175;SHT30;59417;44.788;10.334;2023-09-19T04:03:59;21.80;76.37
28175;SHT30;59417;44.788;10.334;2023-09-19T04:06:33;21.83;76.47
28175;SHT30;59417;44.788;10.334;2023-09-19T04:09:01;21.87;76.19
28175;SHT30;59417;44.788;10.334;2023-09-19T04:11:27;21.83;76.37
28175;SHT30;59417;44.788;10.334;2023-09-19T04:13:52;21.80;76.46
28175;SHT30;59417;44.788;10.334;2023-09-19T04:16:19;22.10;75.61
28175;SHT30;59417;44.788;10.334;2023-09-19T04:18:45;21.93;76.10
28175;SHT30;59417;44.788;10.334;2023-09-19T04:21:10;21.89;75.97
28175;SHT30;59417;44.788;10.334;2023-09-19T04:23:36;21.73;76.03
28175;SHT30;59417;44.788;10.334;2023-09-19T04:26:02;21.49;77.29
28175;SHT30;59417;44.788;10.334;2023-09-19T04:28:31;21.41;77.86
28175;SHT30;59417;44.788;10.334;2023-09-19T04:30:57;21.19;78.51
28175;SHT30;59417;44.788;10.334;2023-09-19T04:33:25;21.19;78.76
28175;SHT30;59417;44.788;10.334;2023-09-19T04:35:50;21.16;78.55
28175;SHT30;59417;44.788;10.334;2023-09-19T04:38:18;21.09;79.11
28175;SHT30;59417;44.788;10.334;2023-09-19T04:40:45;21.25;78.46
28175;SHT30;59417;44.788;10.334;2023-09-19T04:43:10;21.23;78.27
28175;SHT30;59417;44.788;10.334;2023-09-19T04:45:38;21.31;78.39
28175;SHT30;59417;44.788;10.334;2023-09-19T04:48:05;21.33;78.31
28175;SHT30;59417;44.788;10.334;2023-09-19T04:50:32;21.33;78.23
28175;SHT30;59417;44.788;10.334;2023-09-19T04:53:00;21.33;78.52
28175;SHT30;59417;44.788;10.334;2023-09-19T04:55:26;21.41;78.63
28175;SHT30;59417;44.788;10.334;2023-09-19T04:57:53;21.33;79.11
28175;SHT30;59417;44.788;10.334;2023-09-19T05:00:20;21.33;78.94
28175;SHT30;59417;44.788;10.334;2023-09-19T05:02:50;21.33;79.14
28175;SHT30;59417;44.788;10.334;2023-09-19T05:05:19;21.38;79.47
28175;SHT30;59417;44.788;10.334;2023-09-19T05:07:45;21.31;79.85
28175;SHT30;59417;44.788;10.334;2023-09-19T05:10:12;21.47;79.11
28175;SHT30;59417;44.788;10.334;2023-09-19T05:12:38;21.33;79.42
28175;SHT30;59417;44.788;10.334;2023-09-19T05:15:05;21.31;79.76
28175;SHT30;59417;44.788;10.334;2023-09-19T05:17:35;21.38;79.46
28175;SHT30;59417;44.788;10.334;2023-09-19T05:20:02;21.39;79.79
28175;SHT30;59417;44.788;10.334;2023-09-19T05:22:42;21.35;80.02
28175;SHT30;59417;44.788;10.334;2023-09-19T05:25:09;21.57;79.63
28175;SHT30;59417;44.788;10.334;2023-09-19T05:27:35;21.50;79.89
28175;SHT30;59417;44.788;10.334;2023-09-19T05:30:01;21.46;80.14
28175;SHT30;59417;44.788;10.334;2023-09-19T05:32:27;21.49;79.94
28175;SHT30;59417;44.788;10.334;2023-09-19T05:34:52;21.57;80.32
28175;SHT30;59417;44.788;10.334;2023-09-19T05:37:19;21.57;80.28
28175;SHT30;59417;44.788;10.334;2023-09-19T05:39:45;21.57;80.15
28175;SHT30;59417;44.788;10.334;2023-09-19T05:42:10;21.59;80.31
28175;SHT30;59417;44.788;10.334;2023-09-19T05:44:36;21.55;80.63
28175;SHT30;59417;44.788;10.334;2023-09-19T05:47:03;21.53;80.63
28175;SHT30;59417;44.788;10.334;2023-09-19T05:49:28;21.62;80.42
28175;SHT30;59417;44.788;10.334;2023-09-19T05:51:54;21.56;80.55
28175;SHT30;59417;44.788;10.334;2023-09-19T05:54:22;21.55;80.73
28175;SHT30;59417;44.788;10.334;2023-09-19T05:56:48;21.55;80.84
28175;SHT30;59417;44.788;10.334;2023-09-19T05:59:18;21.62;80.77
28175;SHT30;59417;44.788;10.334;2023-09-19T06:01:43;21.60;80.75
28175;SHT30;59417;44.788;10.334;2023-09-19T06:04:09;21.69;80.29
28175;SHT30;59417;44.788;10.334;2023-09-19T06:06:36;21.77;80.14
28175;SHT30;59417;44.788;10.334;2023-09-19T06:09:04;21.78;80.16
28175;SHT30;59417;44.788;10.334;2023-09-19T06:11:34;21.77;80.23
28175;SHT30;59417;44.788;10.334;2023-09-19T06:14:01;21.81;79.94
28175;SHT30;59417;44.788;10.334;2023-09-19T06:16:28;21.83;80.06
28175;SHT30;59417;44.788;10.334;2023-09-19T06:18:55;21.83;80.22
28175;SHT30;59417;44.788;10.334;2023-09-19T06:21:22;21.73;80.64
28175;SHT30;59417;44.788;10.334;2023-09-19T06:23:48;21.69;81.21
28175;SHT30;59417;44.788;10.334;2023-09-19T06:26:14;21.76;81.18
28175;SHT30;59417;44.788;10.334;2023-09-19T06:28:40;21.80;81.02
28175;SHT30;59417;44.788;10.334;2023-09-19T06:31:06;21.83;81.02
28175;SHT30;59417;44.788;10.334;2023-09-19T06:33:36;21.89;80.67
28175;SHT30;59417;44.788;10.334;2023-09-19T06:36:05;21.86;81.09
28175;SHT30;59417;44.788;10.334;2023-09-19T06:38:31;21.92;80.90
28175;SHT30;59417;44.788;10.334;2023-09-19T06:41:00;21.92;80.99
28175;SHT30;59417;44.788;10.334;2023-09-19T06:43:27;21.97;80.85
28175;SHT30;59417;44.788;10.334;2023-09-19T06:45:54;21.89;81.01
28175;SHT30;59417;44.788;10.334;2023-09-19T06:48:20;21.90;81.07
28175;SHT30;59417;44.788;10.334;2023-09-19T06:50:46;22.01;80.81
28175;SHT30;59417;44.788;10.334;2023-09-19T06:53:13;22.08;80.58
28175;SHT30;59417;44.788;10.334;2023-09-19T06:55:39;22.18;80.35
28175;SHT30;59417;44.788;10.334;2023-09-19T06:58:05;22.27;80.25
28175;SHT30;59417;44.788;10.334;2023-09-19T07:00:31;22.41;79.87
28175;SHT30;59417;44.788;10.334;2023-09-19T07:03:06;22.41;79.45
28175;SHT30;59417;44.788;10.334;2023-09-19T07:05:37;22.45;79.93
28175;SHT30;59417;44.788;10.334;2023-09-19T07:08:06;22.58;79.52
28175;SHT30;59417;44.788;10.334;2023-09-19T07:10:32;22.73;78.89
28175;SHT30;59417;44.788;10.334;2023-09-19T07:13:03;22.89;78.42
28175;SHT30;59417;44.788;10.334;2023-09-19T07:15:28;22.93;78.16
28175;SHT30;59417;44.788;10.334;2023-09-19T07:17:56;22.99;78.01
28175;SHT30;59417;44.788;10.334;2023-09-19T07:20:23;23.09;78.14
28175;SHT30;59417;44.788;10.334;2023-09-19T07:22:54;23.20;77.62
28175;SHT30;59417;44.788;10.334;2023-09-19T07:25:21;22.98;77.87
28175;SHT30;59417;44.788;10.334;2023-09-19T07:27:46;23.04;78.45
28175;SHT30;59417;44.788;10.334;2023-09-19T07:30:12;23.12;77.60
28175;SHT30;59417;44.788;10.334;2023-09-19T07:32:38;23.29;77.72
28175;SHT30;59417;44.788;10.334;2023-09-19T07:35:05;23.46;76.89
28175;SHT30;59417;44.788;10.334;2023-09-19T07:37:31;23.65;76.30
28175;SHT30;59417;44.788;10.334;2023-09-19T07:40:05;23.64;76.10
28175;SHT30;59417;44.788;10.334;2023-09-19T07:42:37;23.74;76.36
28175;SHT30;59417;44.788;10.334;2023-09-19T07:45:07;23.75;75.44
28175;SHT30;59417;44.788;10.334;2023-09-19T07:47:33;23.74;75.34
28175;SHT30;59417;44.788;10.334;2023-09-19T07:50:00;23.73;75.43
28175;SHT30;59417;44.788;10.334;2023-09-19T07:52:28;23.71;75.27
28175;SHT30;59417;44.788;10.334;2023-09-19T07:54:54;23.64;75.54
28175;SHT30;59417;44.788;10.334;2023-09-19T07:57:22;23.57;75.51
28175;SHT30;59417;44.788;10.334;2023-09-19T07:59:48;23.63;75.48
28175;SHT30;59417;44.788;10.334;2023-09-19T08:02:13;23.63;75.24
28175;SHT30;59417;44.788;10.334;2023-09-19T08:04:43;23.85;75.38
28175;SHT30;59417;44.788;10.334;2023-09-19T08:07:12;23.97;74.63
28175;SHT30;59417;44.788;10.334;2023-09-19T08:09:41;23.87;74.75
28175;SHT30;59417;44.788;10.334;2023-09-19T08:12:07;23.81;74.75
28175;SHT30;59417;44.788;10.334;2023-09-19T08:14:36;23.82;74.84
28175;SHT30;59417;44.788;10.334;2023-09-19T08:17:03;23.82;74.99
28175;SHT30;59417;44.788;10.334;2023-09-19T08:19:30;23.84;75.22
28175;SHT30;59417;44.788;10.334;2023-09-19T08:21:58;23.92;75.39
28175;SHT30;59417;44.788;10.334;2023-09-19T08:24:27;24.05;74.81
28175;SHT30;59417;44.788;10.334;2023-09-19T08:26:57;24.18;75.08
28175;SHT30;59417;44.788;10.334;2023-09-19T08:29:23;24.28;74.55
28175;SHT30;59417;44.788;10.334;2023-09-19T08:31:54;24.43;73.63
28175;SHT30;59417;44.788;10.334;2023-09-19T08:34:20;24.49;73.14
28175;SHT30;59417;44.788;10.334;2023-09-19T08:36:47;24.52;73.61
28175;SHT30;59417;44.788;10.334;2023-09-19T08:39:13;24.60;72.87
28175;SHT30;59417;44.788;10.334;2023-09-19T08:41:39;24.82;71.44
28175;SHT30;59417;44.788;10.334;2023-09-19T08:44:05;24.79;71.69
28175;SHT30;59417;44.788;10.334;2023-09-19T08:46:34;24.66;72.01
28175;SHT30;59417;44.788;10.334;2023-09-19T08:49:05;24.66;72.74
28175;SHT30;59417;44.788;10.334;2023-09-19T08:51:41;24.77;71.91
28175;SHT30;59417;44.788;10.334;2023-09-19T08:54:17;24.91;72.00
28175;SHT30;59417;44.788;10.334;2023-09-19T08:56:48;25.16;70.30
28175;SHT30;59417;44.788;10.334;2023-09-19T08:59:15;25.14;70.86
28175;SHT30;59417;44.788;10.334;2023-09-19T09:01:42;25.28;70.34
28175;SHT30;59417;44.788;10.334;2023-09-19T09:04:09;25.38;70.45
28175;SHT30;59417;44.788;10.334;2023-09-19T09:06:38;25.54;69.12
28175;SHT30;59417;44.788;10.334;2023-09-19T09:09:05;25.58;69.55
28175;SHT30;59417;44.788;10.334;2023-09-19T09:11:33;25.49;68.97
28175;SHT30;59417;44.788;10.334;2023-09-19T09:13:59;25.44;69.16
28175;SHT30;59417;44.788;10.334;2023-09-19T09:16:24;25.51;69.19
28175;SHT30;59417;44.788;10.334;2023-09-19T09:18:51;25.69;68.13
28175;SHT30;59417;44.788;10.334;2023-09-19T09:21:20;25.75;68.39
28175;SHT30;59417;44.788;10.334;2023-09-19T09:23:48;25.84;68.83
28175;SHT30;59417;44.788;10.334;2023-09-19T09:26:15;26.03;67.91
28175;SHT30;59417;44.788;10.334;2023-09-19T09:28:45;26.18;67.95
28175;SHT30;59417;44.788;10.334;2023-09-19T09:31:22;26.35;67.00
28175;SHT30;59417;44.788;10.334;2023-09-19T09:33:55;26.46;67.02
28175;SHT30;59417;44.788;10.334;2023-09-19T09:36:38;26.47;66.77
28175;SHT30;59417;44.788;10.334;2023-09-19T09:39:05;26.57;66.88
28175;SHT30;59417;44.788;10.334;2023-09-19T09:41:44;26.73;66.60
28175;SHT30;59417;44.788;10.334;2023-09-19T09:44:16;26.86;65.70
28175;SHT30;59417;44.788;10.334;2023-09-19T09:46:46;26.90;66.22
28175;SHT30;59417;44.788;10.334;2023-09-19T09:49:23;26.44;65.87
28175;SHT30;59417;44.788;10.334;2023-09-19T09:52:04;26.26;67.46
28175;SHT30;59417;44.788;10.334;2023-09-19T09:54:58;26.16;66.91
28175;SHT30;59417;44.788;10.334;2023-09-19T09:57:24;26.08;67.25
28175;SHT30;59417;44.788;10.334;2023-09-19T09:59:57;26.05;66.93
28175;SHT30;59417;44.788;10.334;2023-09-19T10:02:35;26.02;66.84
28175;SHT30;59417;44.788;10.334;2023-09-19T10:05:18;26.25;67.36
28175;SHT30;59417;44.788;10.334;2023-09-19T10:07:54;26.60;65.50
28175;SHT30;59417;44.788;10.334;2023-09-19T10:13:10;27.02;65.38
28175;SHT30;59417;44.788;10.334;2023-09-19T10:15:51;27.31;64.60
28175;SHT30;59417;44.788;10.334;2023-09-19T10:18:28;27.37;64.03
28175;SHT30;59417;44.788;10.334;2023-09-19T10:20:56;27.42;64.71
28175;SHT30;59417;44.788;10.334;2023-09-19T10:23:22;27.39;63.48
28175;SHT30;59417;44.788;10.334;2023-09-19T10:25:52;27.32;63.50
28175;SHT30;59417;44.788;10.334;2023-09-19T10:28:20;27.48;64.38
28175;SHT30;59417;44.788;10.334;2023-09-19T10:30:51;27.65;63.57
28175;SHT30;59417;44.788;10.334;2023-09-19T10:33:19;27.82;63.46
28175;SHT30;59417;44.788;10.334;2023-09-19T10:35:51;27.85;63.12
28175;SHT30;59417;44.788;10.334;2023-09-19T10:38:19;27.69;62.96
28175;SHT30;59417;44.788;10.334;2023-09-19T10:40:49;27.93;63.16
28175;SHT30;59417;44.788;10.334;2023-09-19T10:43:21;28.16;62.57
28175;SHT30;59417;44.788;10.334;2023-09-19T10:45:50;28.31;62.27
28175;SHT30;59417;44.788;10.334;2023-09-19T10:48:19;28.44;61.81
28175;SHT30;59417;44.788;10.334;2023-09-19T10:50:49;28.58;61.31
28175;SHT30;59417;44.788;10.334;2023-09-19T10:53:16;28.71;61.13
28175;SHT30;59417;44.788;10.334;2023-09-19T10:55:50;28.79;59.38
28175;SHT30;59417;44.788;10.334;2023-09-19T10:58:34;28.77;60.41
28175;SHT30;59417;44.788;10.334;2023-09-19T11:01:02;28.72;61.08
28175;SHT30;59417;44.788;10.334;2023-09-19T11:03:31;28.61;60.03
28175;SHT30;59417;44.788;10.334;2023-09-19T11:06:10;28.71;60.99
28175;SHT30;59417;44.788;10.334;2023-09-19T11:08:54;28.58;59.54
28175;SHT30;59417;44.788;10.334;2023-09-19T11:30:45;29.46;57.19
28175;SHT30;59417;44.788;10.334;2023-09-19T11:33:21;29.54;57.00
28175;SHT30;59417;44.788;10.334;2023-09-19T11:36:10;29.54;56.15
28175;SHT30;59417;44.788;10.334;2023-09-19T11:43:54;28.85;57.12
28175;SHT30;59417;44.788;10.334;2023-09-19T11:49:40;28.69;58.39
28175;SHT30;59417;44.788;10.334;2023-09-19T11:52:04;28.81;59.97
28175;SHT30;59417;44.788;10.334;2023-09-19T11:54:35;29.06;58.98
28175;SHT30;59417;44.788;10.334;2023-09-19T11:57:05;29.33;58.44
28175;SHT30;59417;44.788;10.334;2023-09-19T11:59:32;29.49;57.14
28175;SHT30;59417;44.788;10.334;2023-09-19T12:02:06;29.59;57.32
28175;SHT30;59417;44.788;10.334;2023-09-19T12:04:40;29.63;56.52
28175;SHT30;59417;44.788;10.334;2023-09-19T12:07:12;29.71;56.68
28175;SHT30;59417;44.788;10.334;2023-09-19T12:09:50;29.54;56.05
28175;SHT30;59417;44.788;10.334;2023-09-19T12:12:27;29.26;56.72
28175;SHT30;59417;44.788;10.334;2023-09-19T12:14:54;29.19;56.92
28175;SHT30;59417;44.788;10.334;2023-09-19T12:17:20;29.35;56.77
28175;SHT30;59417;44.788;10.334;2023-09-19T12:19:56;29.35;56.70
28175;SHT30;59417;44.788;10.334;2023-09-19T12:22:22;29.35;55.35
28175;SHT30;59417;44.788;10.334;2023-09-19T12:24:48;29.39;56.29
28175;SHT30;59417;44.788;10.334;2023-09-19T12:27:16;29.45;55.92
28175;SHT30;59417;44.788;10.334;2023-09-19T12:29:48;29.46;56.18
28175;SHT30;59417;44.788;10.334;2023-09-19T12:32:15;29.46;56.31
28175;SHT30;59417;44.788;10.334;2023-09-19T12:34:53;29.56;55.73
28175;SHT30;59417;44.788;10.334;2023-09-19T12:37:20;29.61;55.65
28175;SHT30;59417;44.788;10.334;2023-09-19T12:39:53;29.71;55.35
28175;SHT30;59417;44.788;10.334;2023-09-19T12:42:24;29.74;55.62
28175;SHT30;59417;44.788;10.334;2023-09-19T12:44:54;29.84;55.67
28175;SHT30;59417;44.788;10.334;2023-09-19T12:47:24;29.81;55.10
28175;SHT30;59417;44.788;10.334;2023-09-19T12:52:47;29.90;55.70
28175;SHT30;59417;44.788;10.334;2023-09-19T12:58:02;29.84;54.20
28175;SHT30;59417;44.788;10.334;2023-09-19T13:05:50;29.74;54.55
28175;SHT30;59417;44.788;10.334;2023-09-19T13:08:32;29.63;55.83
28175;SHT30;59417;44.788;10.334;2023-09-19T13:11:08;29.64;54.34
28175;SHT30;59417;44.788;10.334;2023-09-19T13:13:49;29.51;54.31
28175;SHT30;59417;44.788;10.334;2023-09-19T13:16:19;29.57;55.37
28175;SHT30;59417;44.788;10.334;2023-09-19T13:21:17;29.40;56.01
28175;SHT30;59417;44.788;10.334;2023-09-19T13:23:53;29.50;55.90
28175;SHT30;59417;44.788;10.334;2023-09-19T13:26:25;29.56;56.49
28175;SHT30;59417;44.788;10.334;2023-09-19T13:28:54;29.64;55.51
28175;SHT30;59417;44.788;10.334;2023-09-19T13:31:20;29.69;54.34
28175;SHT30;59417;44.788;10.334;2023-09-19T13:33:47;29.66;55.31
28175;SHT30;59417;44.788;10.334;2023-09-19T13:36:14;29.69;55.08
28175;SHT30;59417;44.788;10.334;2023-09-19T13:38:41;29.69;54.14
28175;SHT30;59417;44.788;10.334;2023-09-19T13:41:09;29.63;54.75
28175;SHT30;59417;44.788;10.334;2023-09-19T13:43:36;29.61;54.94
28175;SHT30;59417;44.788;10.334;2023-09-19T13:46:02;29.69;54.98
28175;SHT30;59417;44.788;10.334;2023-09-19T13:48:28;29.67;55.19
28175;SHT30;59417;44.788;10.334;2023-09-19T13:50:58;29.70;55.06
28175;SHT30;59417;44.788;10.334;2023-09-19T13:53:24;29.73;55.12
28175;SHT30;59417;44.788;10.334;2023-09-19T13:55:51;29.71;55.41
28175;SHT30;59417;44.788;10.334;2023-09-19T13:58:17;29.71;55.18
28175;SHT30;59417;44.788;10.334;2023-09-19T14:00:42;29.73;55.37
28175;SHT30;59417;44.788;10.334;2023-09-19T14:03:08;29.61;54.80
28175;SHT30;59417;44.788;10.334;2023-09-19T14:05:36;29.56;54.98
28175;SHT30;59417;44.788;10.334;2023-09-19T14:08:03;29.53;53.14
28175;SHT30;59417;44.788;10.334;2023-09-19T14:10:30;29.42;53.26
28175;SHT30;59417;44.788;10.334;2023-09-19T14:12:57;29.25;54.65
28175;SHT30;59417;44.788;10.334;2023-09-19T14:15:25;29.23;54.01
28175;SHT30;59417;44.788;10.334;2023-09-19T14:17:59;29.23;54.50
28175;SHT30;59417;44.788;10.334;2023-09-19T14:20:26;29.23;54.90
28175;SHT30;59417;44.788;10.334;2023-09-19T14:22:53;29.22;54.50
28175;SHT30;59417;44.788;10.334;2023-09-19T14:25:19;29.19;54.58
28175;SHT30;59417;44.788;10.334;2023-09-19T14:27:46;29.15;55.52
28175;SHT30;59417;44.788;10.334;2023-09-19T14:30:13;29.18;55.47
28175;SHT30;59417;44.788;10.334;2023-09-19T14:32:38;29.18;55.63
28175;SHT30;59417;44.788;10.334;2023-09-19T14:35:06;29.20;54.56
28175;SHT30;59417;44.788;10.334;2023-09-19T14:37:32;29.12;54.95
28175;SHT30;59417;44.788;10.334;2023-09-19T14:39:58;28.96;55.65
28175;SHT30;59417;44.788;10.334;2023-09-19T14:42:23;28.87;56.61
28175;SHT30;59417;44.788;10.334;2023-09-19T14:44:49;28.77;56.15
28175;SHT30;59417;44.788;10.334;2023-09-19T14:47:15;28.71;56.45
28175;SHT30;59417;44.788;10.334;2023-09-19T14:49:42;28.69;57.13
28175;SHT30;59417;44.788;10.334;2023-09-19T14:52:09;28.65;57.36
28175;SHT30;59417;44.788;10.334;2023-09-19T14:54:36;28.67;57.38
28175;SHT30;59417;44.788;10.334;2023-09-19T14:57:04;28.72;57.80
28175;SHT30;59417;44.788;10.334;2023-09-19T14:59:33;28.78;56.15
28175;SHT30;59417;44.788;10.334;2023-09-19T15:02:03;28.74;56.85
28175;SHT30;59417;44.788;10.334;2023-09-19T15:04:33;28.69;57.04
28175;SHT30;59417;44.788;10.334;2023-09-19T15:07:01;28.60;57.61
28175;SHT30;59417;44.788;10.334;2023-09-19T15:09:28;28.63;57.61
28175;SHT30;59417;44.788;10.334;2023-09-19T15:11:54;28.54;57.96
28175;SHT30;59417;44.788;10.334;2023-09-19T15:14:23;28.49;57.69
28175;SHT30;59417;44.788;10.334;2023-09-19T15:16:50;28.44;57.45
28175;SHT30;59417;44.788;10.334;2023-09-19T15:19:16;28.55;57.10
28175;SHT30;59417;44.788;10.334;2023-09-19T15:21:43;28.44;58.37
28175;SHT30;59417;44.788;10.334;2023-09-19T15:24:09;28.36;59.34
28175;SHT30;59417;44.788;10.334;2023-09-19T15:26:37;28.38;57.29
28175;SHT30;59417;44.788;10.334;2023-09-19T15:29:06;28.38;57.32
28175;SHT30;59417;44.788;10.334;2023-09-19T15:31:32;28.33;57.89
28175;SHT30;59417;44.788;10.334;2023-09-19T15:33:58;28.26;57.62
28175;SHT30;59417;44.788;10.334;2023-09-19T15:36:24;28.21;57.12
28175;SHT30;59417;44.788;10.334;2023-09-19T15:41:17;28.16;54.52
28175;SHT30;59417;44.788;10.334;2023-09-19T15:43:43;28.21;52.79
28175;SHT30;59417;44.788;10.334;2023-09-19T15:46:08;28.21;50.65
28175;SHT30;59417;44.788;10.334;2023-09-19T15:48:35;28.23;49.29
28175;SHT30;59417;44.788;10.334;2023-09-19T15:51:04;28.26;49.74
28175;SHT30;59417;44.788;10.334;2023-09-19T15:53:47;28.28;51.14
28175;SHT30;59417;44.788;10.334;2023-09-19T15:56:14;28.33;49.49
28175;SHT30;59417;44.788;10.334;2023-09-19T15:58:45;28.37;45.34
28175;SHT30;59417;44.788;10.334;2023-09-19T16:01:11;28.49;41.04
28175;SHT30;59417;44.788;10.334;2023-09-19T16:03:39;28.69;39.98
28175;SHT30;59417;44.788;10.334;2023-09-19T16:06:13;28.84;40.87
28175;SHT30;59417;44.788;10.334;2023-09-19T16:08:43;28.89;40.97
28175;SHT30;59417;44.788;10.334;2023-09-19T16:11:10;28.91;40.51
28175;SHT30;59417;44.788;10.334;2023-09-19T16:13:37;28.91;40.13
28175;SHT30;59417;44.788;10.334;2023-09-19T16:16:03;28.88;40.71
28175;SHT30;59417;44.788;10.334;2023-09-19T16:18:30;29.02;41.50
28175;SHT30;59417;44.788;10.334;2023-09-19T16:21:02;29.12;42.06
28175;SHT30;59417;44.788;10.334;2023-09-19T16:23:29;29.16;41.81
28175;SHT30;59417;44.788;10.334;2023-09-19T16:26:05;29.18;41.37
28175;SHT30;59417;44.788;10.334;2023-09-19T16:28:32;29.13;41.93
28175;SHT30;59417;44.788;10.334;2023-09-19T16:31:00;29.08;42.77